메인 페이지
METAR-TAF:

METAR-TAF

공항 :

칭다오, 중국

칭다오 류팅 국제공항

위도: 36-04N, 경도: 120-20E, 고도: 77m

현재 날씨관측

예보는 25분 전, 07:00시(UTC)에 발표되었습니다.
남서6kt풍과 북서풍을 오가는
온도 31°C
습도 16%
기압 1003 hPa
시정 10km 이상
1500m 미만 상공 구름 및 적란운 없음

METAR: ZSQD 290700Z 23003MPS 180V310 CAVOK 31/02 Q1003 NOSIG

시각: 15:25 (07:25 UTC)

예보

예보는 4 시간 5분 전, 03:20시(UTC)에 발표되었습니다.
예보 대상 시간: 29일 06시부터 30일 06시까지 (UTC)
남남서8kt
시정: 5000m
박무

TAF: ZSQD 290320Z 2906/3006 20004MPS 5000 BR NSC TX31/2906Z TN15/2921Z

4,000개 이상의 공항 관측 자료 및 예보 (METAR 및 TAF 보고).

지도상에서 검색 가능한 기상관측소가 노란 점과 빨간 점으로 표시되어 있습니다.

기상관측소 명을 보려면 표시 위로 마우스를 이동하세요.

날씨 관측과 예보를 보려면 클릭하세요.

지도 변경 : 확대하려면 엑스 표시가 있는 녹색 버튼, 축소하려면 빼기 표시가 있는 녹색 버튼, 다음 페이지의 지도를 보려면 녹색 화살표를 클릭하세요.


METAR-TAF: